createdAt,value
2023-03-12T00:00:30.054Z,39.26
2023-03-12T00:01:30.725Z,39.26
2023-03-12T00:02:30.166Z,39.22
2023-03-12T00:03:30.263Z,39.27
2023-03-12T00:04:30.206Z,39.23
2023-03-12T00:05:30.823Z,39.19
2023-03-12T00:06:30.289Z,39.24
2023-03-12T00:07:30.324Z,39.23
2023-03-12T00:08:30.373Z,39.27
2023-03-12T00:09:30.400Z,39.18
2023-03-12T00:10:30.434Z,39.23
2023-03-12T00:11:30.476Z,39.22
2023-03-12T00:12:30.535Z,39.23
2023-03-12T00:13:30.559Z,39.23
2023-03-12T00:14:30.592Z,39.22
2023-03-12T00:15:30.634Z,39.23
2023-03-12T00:16:30.672Z,39.23
2023-03-12T00:17:30.713Z,39.26
2023-03-12T00:18:30.753Z,39.24
2023-03-12T00:19:30.800Z,39.19
2023-03-12T00:20:30.801Z,39.27
2023-03-12T00:21:30.865Z,39.27
2023-03-12T00:22:30.897Z,39.27
2023-03-12T00:23:31.349Z,39.22
2023-03-12T00:24:30.947Z,39.23
2023-03-12T00:25:30.986Z,39.27
2023-03-12T00:26:31.100Z,39.32
2023-03-12T00:27:31.065Z,39.24
2023-03-12T00:28:31.090Z,39.29
2023-03-12T00:29:31.846Z,39.33
2023-03-12T00:30:31.164Z,39.30
2023-03-12T00:31:31.223Z,39.34
2023-03-12T00:32:31.271Z,39.34
2023-03-12T00:33:31.262Z,39.29
2023-03-12T00:34:31.286Z,39.31
2023-03-12T00:35:31.386Z,39.33
2023-03-12T00:36:31.359Z,39.27
2023-03-12T00:37:31.394Z,39.30
2023-03-12T00:38:31.485Z,39.29
2023-03-12T00:39:31.469Z,39.31
2023-03-12T00:40:31.519Z,39.28
2023-03-12T00:41:31.542Z,39.26
2023-03-12T00:42:31.584Z,39.24
2023-03-12T00:43:31.636Z,39.25
2023-03-12T00:44:31.690Z,39.28
2023-03-12T00:45:31.728Z,39.29
2023-03-12T00:46:31.875Z,39.35
2023-03-12T00:47:31.804Z,39.32
2023-03-12T00:48:31.828Z,39.28
2023-03-12T00:49:31.856Z,39.28
2023-03-12T00:50:31.895Z,39.31
2023-03-12T00:51:32.010Z,39.27
2023-03-12T00:52:31.974Z,39.26
2023-03-12T00:53:32.018Z,39.27
2023-03-12T00:54:32.099Z,39.24
2023-03-12T00:55:32.143Z,39.28
2023-03-12T00:56:32.105Z,39.30
2023-03-12T00:57:32.138Z,39.28
2023-03-12T00:58:32.189Z,39.26
2023-03-12T00:59:32.222Z,39.26
2023-03-12T01:00:32.290Z,39.32
2023-03-12T01:01:32.333Z,39.30
2023-03-12T01:02:32.343Z,39.34
2023-03-12T01:03:32.393Z,39.29
2023-03-12T01:04:32.475Z,39.32
2023-03-12T01:05:35.100Z,39.31
2023-03-12T01:06:32.823Z,39.26
2023-03-12T01:07:32.780Z,39.23
2023-03-12T01:08:32.818Z,39.28
2023-03-12T01:09:32.863Z,39.30
2023-03-12T01:10:32.904Z,39.30
2023-03-12T01:11:32.949Z,39.30
2023-03-12T01:12:32.996Z,39.37
2023-03-12T01:13:33.042Z,39.37
2023-03-12T01:14:33.073Z,39.38
2023-03-12T01:15:33.108Z,39.35
2023-03-12T01:16:33.211Z,39.31
2023-03-12T01:17:33.183Z,39.33
2023-03-12T01:18:33.849Z,39.32
2023-03-12T01:19:33.281Z,39.30
2023-03-12T01:20:33.330Z,39.38
2023-03-12T01:21:33.383Z,39.31
2023-03-12T01:22:33.432Z,39.38
2023-03-12T01:23:34.362Z,39.26
2023-03-12T01:24:33.583Z,39.30
2023-03-12T01:25:33.576Z,39.35
2023-03-12T01:26:33.614Z,39.31
2023-03-12T01:27:34.360Z,39.32
2023-03-12T01:28:34.357Z,39.32
2023-03-12T01:29:33.733Z,39.31
2023-03-12T01:30:33.780Z,39.33
2023-03-12T01:31:33.859Z,39.36
2023-03-12T01:32:33.869Z,39.29
2023-03-12T01:33:33.894Z,39.30
2023-03-12T01:34:33.929Z,39.33
2023-03-12T01:35:34.045Z,39.32
2023-03-12T01:36:34.098Z,39.35
2023-03-12T01:37:34.089Z,39.35
2023-03-12T01:38:34.133Z,39.29
2023-03-12T01:39:34.151Z,39.27
2023-03-12T01:40:34.199Z,39.30
2023-03-12T01:41:34.217Z,39.25
2023-03-12T01:42:34.264Z,39.26
2023-03-12T01:43:34.302Z,39.25
2023-03-12T01:44:34.328Z,39.20
2023-03-12T03:20:39.390Z,39.35
2023-03-12T04:07:40.633Z,39.44
2023-03-12T04:08:40.683Z,39.32
2023-03-12T04:09:40.721Z,39.39
2023-03-12T04:10:40.779Z,39.33
2023-03-12T04:11:40.819Z,39.41
2023-03-12T04:12:40.872Z,39.37
2023-03-12T04:13:40.919Z,39.40
2023-03-12T04:14:40.989Z,39.41
2023-03-12T04:15:41.054Z,39.36
2023-03-12T04:16:41.071Z,39.39
2023-03-12T04:17:41.156Z,39.35
2023-03-12T04:18:41.252Z,39.36
2023-03-12T04:19:41.287Z,39.42
2023-03-12T04:20:41.280Z,39.39
2023-03-12T04:21:41.333Z,39.41
2023-03-12T04:22:41.392Z,39.40
2023-03-12T04:23:41.436Z,39.42
2023-03-12T04:24:41.527Z,39.42
2023-03-12T04:25:41.600Z,39.38
2023-03-12T04:26:41.567Z,39.40
2023-03-12T04:27:41.713Z,39.42
2023-03-12T04:28:41.666Z,39.32
2023-03-12T04:29:41.721Z,39.40
2023-03-12T04:30:41.764Z,39.39
2023-03-12T04:31:41.853Z,39.40
2023-03-12T04:32:41.893Z,39.44
2023-03-12T04:33:41.909Z,39.42
2023-03-12T04:34:41.956Z,39.33
2023-03-12T04:35:42.018Z,39.39
2023-03-12T04:36:42.047Z,39.36
2023-03-12T04:37:42.108Z,39.37
2023-03-12T04:38:42.148Z,39.37
2023-03-12T04:39:42.198Z,39.36
2023-03-12T04:40:42.246Z,39.38
2023-03-12T04:41:42.282Z,39.34
2023-03-12T04:42:42.334Z,39.33
2023-03-12T04:43:42.385Z,39.40
2023-03-12T04:44:42.421Z,39.39
2023-03-12T06:22:47.551Z,39.44
2023-03-12T06:52:49.137Z,39.40
2023-03-12T06:53:49.279Z,39.43
2023-03-12T06:54:49.281Z,39.43
2023-03-12T06:55:49.304Z,39.45
2023-03-12T06:56:49.365Z,39.50
2023-03-12T06:57:49.401Z,39.45
2023-03-12T06:58:49.509Z,39.47
2023-03-12T06:59:50.651Z,39.44
2023-03-12T07:00:49.557Z,39.46
2023-03-12T07:01:49.653Z,39.44
2023-03-12T07:02:49.692Z,39.45
2023-03-12T07:03:49.715Z,39.51
2023-03-12T07:04:49.844Z,39.43
2023-03-12T07:05:49.838Z,39.43
2023-03-12T07:06:49.876Z,39.48
2023-03-12T07:07:49.926Z,39.46
2023-03-12T07:08:49.972Z,39.44
2023-03-12T07:09:50.024Z,39.46
2023-03-12T07:10:50.079Z,39.43
2023-03-12T07:11:50.133Z,39.48
2023-03-12T07:12:50.167Z,39.48
2023-03-12T07:13:50.301Z,39.39
2023-03-12T07:14:50.272Z,39.48
2023-03-12T07:15:50.369Z,39.46
2023-03-12T07:16:50.367Z,39.47
2023-03-12T07:17:50.445Z,39.44
2023-03-12T07:18:50.483Z,39.42
2023-03-12T07:21:50.638Z,39.38
2023-03-12T07:22:50.698Z,39.42
2023-03-12T07:23:50.824Z,39.37
2023-03-12T07:24:50.798Z,39.38
2023-03-12T07:25:50.836Z,39.37
2023-03-12T07:26:50.904Z,39.41
2023-03-12T07:27:50.953Z,39.34
2023-03-12T07:28:51.005Z,39.39
2023-03-12T07:29:51.064Z,39.43
2023-03-12T07:30:51.127Z,39.37
2023-03-12T07:31:51.167Z,39.36
2023-03-12T07:32:51.244Z,39.41
2023-03-12T07:33:51.364Z,39.41
2023-03-12T07:34:51.313Z,39.43
2023-03-12T07:35:51.924Z,39.41
2023-03-12T07:36:51.573Z,39.39
2023-03-12T07:37:51.522Z,39.47
2023-03-12T07:38:51.635Z,39.37
2023-03-12T07:39:52.527Z,39.39
2023-03-12T07:40:51.750Z,39.36
2023-03-12T07:41:51.726Z,39.38
2023-03-12T07:42:51.766Z,39.36
2023-03-12T07:43:51.866Z,39.34
2023-03-12T07:44:51.957Z,39.37
2023-03-12T07:45:51.933Z,39.37
2023-03-12T07:46:52.075Z,39.38
2023-03-12T07:47:52.084Z,39.39
2023-03-12T07:48:52.080Z,39.36
2023-03-12T07:49:52.214Z,39.38
2023-03-12T07:50:52.290Z,39.43
2023-03-12T07:51:52.530Z,39.34
2023-03-12T07:52:52.300Z,39.36
2023-03-12T07:53:52.375Z,39.31
2023-03-12T07:54:52.745Z,39.33
2023-03-12T07:55:52.553Z,39.39
2023-03-12T07:56:52.618Z,39.34
2023-03-12T07:57:52.598Z,39.35
2023-03-12T07:58:52.782Z,39.42
2023-03-12T07:59:52.715Z,39.42
2023-03-12T08:00:52.784Z,39.36
2023-03-12T08:01:52.893Z,39.34
2023-03-12T08:02:53.082Z,39.29
2023-03-12T08:03:52.946Z,39.34
2023-03-12T08:04:53.081Z,39.39
2023-03-12T08:05:53.097Z,39.34
2023-03-12T08:06:53.132Z,39.35
2023-03-12T08:07:53.153Z,39.33
2023-03-12T08:08:53.295Z,39.34
2023-03-12T08:09:53.330Z,39.28
2023-03-12T08:10:53.300Z,39.33
2023-03-12T08:11:53.451Z,39.29
2023-03-12T08:12:53.475Z,39.37
2023-03-12T08:13:53.471Z,39.32
2023-03-12T08:14:53.552Z,39.24
2023-03-12T08:15:53.992Z,39.29
2023-03-12T08:16:53.630Z,39.32
2023-03-12T08:17:53.687Z,39.34
2023-03-12T08:18:53.732Z,39.43
2023-03-12T08:19:54.195Z,39.36
2023-03-12T08:20:53.858Z,39.35
2023-03-12T08:21:53.904Z,39.38
2023-03-12T08:22:53.950Z,39.38
2023-03-12T08:23:54.024Z,39.34
2023-03-12T08:24:54.077Z,39.36
2023-03-12T08:25:54.123Z,39.33
2023-03-12T08:26:54.188Z,39.34
2023-03-12T08:27:54.251Z,39.39
2023-03-12T08:28:54.303Z,39.36
2023-03-12T08:29:54.358Z,39.29
2023-03-12T08:30:54.418Z,39.29
2023-03-12T08:32:04.512Z,39.36
2023-03-12T08:33:54.536Z,39.32
2023-03-12T08:34:54.580Z,39.30
2023-03-12T08:35:54.690Z,39.39
2023-03-12T08:36:54.654Z,39.35
2023-03-12T08:37:54.666Z,39.36
2023-03-12T08:38:54.688Z,39.38
2023-03-12T08:39:54.730Z,39.38
2023-03-12T08:40:54.812Z,39.34
2023-03-12T08:41:54.786Z,39.40
2023-03-12T08:42:54.823Z,39.40
2023-03-12T08:43:54.856Z,39.43
2023-03-12T08:44:54.897Z,39.43
2023-03-12T08:45:55.091Z,39.36
2023-03-12T08:46:54.960Z,39.33
2023-03-12T08:47:54.988Z,39.39
2023-03-12T08:48:55.026Z,39.39
2023-03-12T08:49:55.080Z,39.38
2023-03-12T08:50:55.092Z,39.36
2023-03-12T08:51:55.187Z,39.40
2023-03-12T08:52:55.163Z,39.39
2023-03-12T08:53:55.204Z,39.41
2023-03-12T08:54:55.238Z,39.43
2023-03-12T08:55:55.273Z,39.39
2023-03-12T08:56:55.327Z,39.34
2023-03-12T08:57:55.379Z,39.29
2023-03-12T08:58:55.435Z,39.38
2023-03-12T08:59:55.507Z,39.35
2023-03-12T09:00:55.992Z,39.34
2023-03-12T09:01:55.624Z,39.33
2023-03-12T09:02:55.705Z,39.28
2023-03-12T09:03:55.734Z,39.30
2023-03-12T09:04:55.785Z,39.32
2023-03-12T09:05:55.845Z,39.26
2023-03-12T09:07:55.941Z,39.34
2023-03-12T09:08:55.990Z,39.35
2023-03-12T09:09:56.033Z,39.35
2023-03-12T09:10:56.129Z,39.32
2023-03-12T09:11:56.166Z,39.35
2023-03-12T09:12:56.210Z,39.34
2023-03-12T09:14:31.145Z,39.41
2023-03-12T09:15:56.332Z,39.31
2023-03-12T09:16:56.354Z,39.27
2023-03-12T09:17:56.391Z,39.34
2023-03-12T09:18:56.424Z,39.36
2023-03-12T09:19:56.451Z,39.35
2023-03-12T09:21:56.519Z,39.30
2023-03-12T09:22:56.644Z,39.36
2023-03-12T09:23:56.632Z,39.31
2023-03-12T09:24:56.606Z,39.30
2023-03-12T09:25:56.644Z,39.35
2023-03-12T09:26:56.686Z,39.36
2023-03-12T09:27:56.709Z,39.36
2023-03-12T09:28:56.730Z,39.36
2023-03-12T09:30:00.556Z,39.43
2023-03-12T09:30:56.814Z,39.40
2023-03-12T09:31:56.829Z,39.33
2023-03-12T10:55:00.624Z,39.29
2023-03-12T10:57:00.659Z,39.38
2023-03-12T10:58:00.702Z,39.27
2023-03-12T10:59:00.816Z,39.27
2023-03-12T11:00:01.098Z,39.22
2023-03-12T11:01:00.876Z,39.21
2023-03-12T11:02:00.999Z,39.20
2023-03-12T11:03:00.984Z,39.16
2023-03-12T11:04:01.046Z,39.18
2023-03-12T11:05:01.099Z,39.18
2023-03-12T11:06:01.227Z,39.16
2023-03-12T11:07:01.203Z,39.21
2023-03-12T11:08:01.267Z,39.19
2023-03-12T11:09:15.850Z,39.18
2023-03-12T11:11:01.386Z,39.19
2023-03-12T11:12:01.413Z,39.25
2023-03-12T11:13:01.458Z,39.25
2023-03-12T11:14:01.498Z,39.21
2023-03-12T11:15:01.536Z,39.24
2023-03-12T11:16:01.598Z,39.17
2023-03-12T11:17:01.603Z,39.25
2023-03-12T11:18:01.640Z,39.24
2023-03-12T11:19:01.672Z,39.18
2023-03-12T11:20:01.702Z,39.25
2023-03-12T11:21:01.823Z,39.27
2023-03-12T11:22:01.772Z,39.29
2023-03-12T11:23:01.796Z,39.25
2023-03-12T11:24:01.929Z,39.25
2023-03-12T11:25:01.880Z,39.25
2023-03-12T11:26:01.968Z,39.22
2023-03-12T11:27:01.960Z,39.20
2023-03-12T11:28:02.126Z,39.22
2023-03-12T11:29:02.022Z,39.21
2023-03-12T11:30:02.052Z,39.19
2023-03-12T11:31:02.142Z,39.16
2023-03-12T11:32:02.375Z,39.19
2023-03-12T11:33:02.156Z,39.20
2023-03-12T11:34:02.178Z,39.16
2023-03-12T11:35:02.266Z,39.20
2023-03-12T11:36:02.311Z,39.24
2023-03-12T11:37:02.434Z,39.20
2023-03-12T11:39:02.489Z,39.25
2023-03-12T11:40:02.546Z,39.22
2023-03-12T11:41:02.609Z,39.22
2023-03-12T11:42:02.845Z,39.24
2023-03-12T11:43:02.707Z,39.27
2023-03-12T11:44:02.774Z,39.26
2023-03-12T11:45:02.831Z,39.31
2023-03-12T11:46:02.887Z,39.28
2023-03-12T11:47:02.938Z,39.25
2023-03-12T11:48:02.994Z,39.27
2023-03-12T11:49:03.049Z,39.29
2023-03-12T11:50:03.108Z,39.27
2023-03-12T11:51:03.175Z,39.32
2023-03-12T11:52:03.229Z,39.22
2023-03-12T11:53:03.283Z,39.22
2023-03-12T11:54:03.338Z,39.25
2023-03-12T11:55:03.407Z,39.30
2023-03-12T11:56:03.461Z,39.27
2023-03-12T11:57:03.592Z,39.22
2023-03-12T11:58:03.589Z,39.20
2023-03-12T11:59:03.666Z,39.29
2023-03-12T12:00:03.702Z,39.25
2023-03-12T12:01:03.760Z,39.27
2023-03-12T12:02:03.867Z,39.26
2023-03-12T12:03:03.942Z,39.35
2023-03-12T12:04:03.942Z,39.26
2023-03-12T12:05:04.015Z,39.25
2023-03-12T12:06:04.074Z,39.21
2023-03-12T12:11:04.360Z,39.21
2023-03-12T12:12:05.703Z,39.14
2023-03-12T12:28:05.301Z,39.29
2023-03-12T13:52:10.681Z,39.42
2023-03-12T13:53:10.742Z,39.38
2023-03-12T13:54:10.819Z,39.32
2023-03-12T13:55:10.939Z,39.31
2023-03-12T13:56:10.950Z,39.37
2023-03-12T13:57:10.996Z,39.30
2023-03-12T13:58:11.563Z,39.40
2023-03-12T13:59:11.110Z,39.34
2023-03-12T14:00:11.180Z,39.38
2023-03-12T14:01:11.248Z,39.40
2023-03-12T14:02:11.289Z,39.35
2023-03-12T14:03:11.344Z,39.36
2023-03-12T14:04:11.415Z,39.37
2023-03-12T14:05:11.512Z,39.43
2023-03-12T14:07:11.599Z,39.38
2023-03-12T14:08:11.663Z,39.49
2023-03-12T14:09:11.728Z,39.45
2023-03-12T14:11:11.851Z,39.32
2023-03-12T14:12:11.972Z,39.37
2023-03-12T14:13:11.964Z,39.40
2023-03-12T14:14:12.030Z,39.43
2023-03-12T14:15:12.111Z,39.40
2023-03-12T16:25:20.611Z,39.46
2023-03-12T16:26:20.688Z,39.44
2023-03-12T16:27:31.905Z,39.55
2023-03-12T16:28:21.780Z,39.51
2023-03-12T16:29:20.824Z,39.53
2023-03-12T16:30:20.856Z,39.47
2023-03-12T16:31:20.940Z,39.53
2023-03-12T16:32:20.946Z,39.49
2023-03-12T16:33:21.031Z,39.55
2023-03-12T16:34:21.002Z,39.47
2023-03-12T16:35:21.033Z,39.55
2023-03-12T16:36:21.065Z,39.52
2023-03-12T16:37:21.098Z,39.48
2023-03-12T16:38:21.125Z,39.48
2023-03-12T16:39:21.164Z,39.48
2023-03-12T16:40:33.017Z,39.51
2023-03-12T16:41:22.249Z,39.44
2023-03-12T16:42:21.306Z,39.51
2023-03-12T16:43:21.304Z,39.44
2023-03-12T16:44:21.394Z,39.54
2023-03-12T16:45:21.365Z,39.48
2023-03-12T16:46:21.443Z,39.43
2023-03-12T16:47:21.430Z,39.43
2023-03-12T16:48:21.491Z,39.48
2023-03-12T16:49:21.507Z,39.44
2023-03-12T16:50:21.538Z,39.43
2023-03-12T16:51:21.572Z,39.42
2023-03-12T16:52:21.608Z,39.37
2023-03-12T16:53:21.642Z,39.38
2023-03-12T16:54:21.671Z,39.35
2023-03-12T16:55:21.703Z,39.42
2023-03-12T16:56:21.729Z,39.35
2023-03-12T16:57:21.781Z,39.39
2023-03-12T16:58:21.789Z,39.37
2023-03-12T16:59:21.829Z,39.41
2023-03-12T17:00:21.874Z,39.48
2023-03-12T17:01:22.003Z,39.46
2023-03-12T17:02:22.118Z,39.48
2023-03-12T17:03:22.099Z,39.46
2023-03-12T17:04:22.158Z,39.41
2023-03-12T17:05:22.196Z,39.43
2023-03-12T17:06:22.256Z,39.39
2023-03-12T17:07:22.396Z,39.43
2023-03-12T17:08:22.374Z,39.46
2023-03-12T17:09:22.453Z,39.44
2023-03-12T17:10:22.518Z,39.47
2023-03-12T17:11:22.636Z,39.44
2023-03-12T17:12:22.636Z,39.43
2023-03-12T17:13:22.712Z,39.44
2023-03-12T17:14:22.764Z,39.51
2023-03-12T17:15:22.827Z,39.47
2023-03-12T17:16:22.930Z,39.47
2023-03-12T17:17:22.955Z,39.44
2023-03-12T17:18:23.617Z,39.40
2023-03-12T17:19:23.076Z,39.39
2023-03-12T17:20:23.142Z,39.39
2023-03-12T17:21:23.212Z,39.36
2023-03-12T17:22:23.273Z,39.42
2023-03-12T17:23:23.327Z,39.42
2023-03-12T17:24:23.396Z,39.39
2023-03-12T17:25:23.472Z,39.36
2023-03-12T17:26:23.523Z,39.36
2023-03-12T17:27:23.599Z,39.37
2023-03-12T17:28:23.643Z,39.36
2023-03-12T17:29:24.624Z,39.37
2023-03-12T17:30:23.809Z,39.46
2023-03-12T17:31:23.886Z,39.43
2023-03-12T17:32:24.133Z,39.36
2023-03-12T17:33:23.940Z,39.39
2023-03-12T17:34:23.980Z,39.45
2023-03-12T17:35:24.092Z,39.42
2023-03-12T17:36:24.102Z,39.29
2023-03-12T17:37:24.161Z,39.43
2023-03-12T17:38:24.224Z,39.43
2023-03-12T17:39:24.277Z,39.51
2023-03-12T17:40:24.332Z,39.50
2023-03-12T17:41:26.921Z,39.42
2023-03-12T17:42:24.434Z,39.43
2023-03-12T17:43:24.480Z,39.38
2023-03-12T17:44:25.119Z,39.44
2023-03-12T17:45:24.560Z,39.42
2023-03-12T17:46:24.632Z,39.39
2023-03-12T17:47:24.637Z,39.42
2023-03-12T17:48:24.710Z,39.39
2023-03-12T17:49:24.722Z,39.48
2023-03-12T17:50:24.763Z,39.43
2023-03-12T17:51:24.826Z,39.37
2023-03-12T17:52:24.915Z,39.39
2023-03-12T17:53:24.899Z,39.37
2023-03-12T17:54:24.952Z,39.42
2023-03-12T17:55:24.972Z,39.40
2023-03-12T17:56:25.031Z,39.48
2023-03-12T17:57:25.066Z,39.41
2023-03-12T17:58:25.098Z,39.43
2023-03-12T17:59:26.125Z,39.42
2023-03-12T18:00:25.181Z,39.44
2023-03-12T18:01:25.213Z,39.45
2023-03-12T18:02:25.249Z,39.41
2023-03-12T18:03:25.323Z,39.44
2023-03-12T18:04:25.357Z,39.48
2023-03-12T18:05:25.383Z,39.46
2023-03-12T18:06:25.409Z,39.46
2023-03-12T18:07:25.454Z,39.42
2023-03-12T18:08:25.499Z,39.43
2023-03-12T18:09:25.532Z,39.40
2023-03-12T18:10:25.580Z,39.43
2023-03-12T18:11:25.624Z,39.43
2023-03-12T18:12:25.656Z,39.46
2023-03-12T18:13:25.700Z,39.43
2023-03-12T18:14:25.736Z,39.43
2023-03-12T18:15:25.878Z,39.39
2023-03-12T18:16:25.889Z,39.43
2023-03-12T18:17:25.866Z,39.42
2023-03-12T18:18:25.974Z,39.39
2023-03-12T18:19:26.016Z,39.33
2023-03-12T18:20:37.772Z,39.39
2023-03-12T18:21:27.021Z,39.34
2023-03-12T18:22:26.053Z,39.37
2023-03-12T18:23:26.084Z,39.37
2023-03-12T18:24:26.643Z,39.42
2023-03-12T18:25:26.182Z,39.41
2023-03-12T18:27:26.239Z,39.38
2023-03-12T18:28:26.279Z,39.39
2023-03-12T18:29:26.390Z,39.34
2023-03-12T18:30:26.350Z,39.35
2023-03-12T18:31:27.197Z,39.34
2023-03-12T18:32:26.485Z,39.38
2023-03-12T18:33:27.153Z,39.41
2023-03-12T18:35:26.595Z,39.48
2023-03-12T18:36:26.618Z,39.40
2023-03-12T18:37:26.658Z,39.38
2023-03-12T18:38:26.697Z,39.35
2023-03-12T18:39:26.737Z,39.35
2023-03-12T19:44:30.790Z,39.35
2023-03-12T19:45:30.772Z,39.40
2023-03-12T19:46:30.771Z,39.40
2023-03-12T19:47:30.826Z,39.45
2023-03-12T19:48:30.903Z,39.45
2023-03-12T19:49:30.968Z,39.42
2023-03-12T19:50:31.024Z,39.39
2023-03-12T19:51:31.098Z,39.40
2023-03-12T19:52:31.141Z,39.40
2023-03-12T19:53:31.337Z,39.36
2023-03-12T19:54:31.326Z,39.41
2023-03-12T19:55:31.333Z,39.45
2023-03-12T19:56:31.380Z,39.39
2023-03-12T19:57:31.458Z,39.37
2023-03-12T19:58:31.498Z,39.36
2023-03-12T19:59:31.557Z,39.41
2023-03-12T20:00:31.636Z,39.41
2023-03-12T20:01:31.689Z,39.39
2023-03-12T20:02:31.835Z,39.34
2023-03-12T20:03:31.914Z,39.43
2023-03-12T20:04:31.895Z,39.40
2023-03-12T20:05:31.956Z,39.34
2023-03-12T20:06:32.000Z,39.41
2023-03-12T20:07:32.061Z,39.39
2023-03-12T20:08:32.180Z,39.34
2023-03-12T20:09:32.172Z,39.37
2023-03-12T20:10:32.247Z,39.34
2023-03-12T20:11:32.292Z,39.34
2023-03-12T20:12:32.347Z,39.37
2023-03-12T20:13:32.434Z,39.34
2023-03-12T20:14:32.481Z,39.39
2023-03-12T20:15:32.525Z,39.30
2023-03-12T20:16:32.667Z,39.32
2023-03-12T20:17:32.670Z,39.35
2023-03-12T20:18:32.731Z,39.30
2023-03-12T20:19:32.780Z,39.32
2023-03-12T20:20:32.834Z,39.30
2023-03-12T20:21:32.920Z,39.25
2023-03-12T20:22:32.960Z,39.29
2023-03-12T20:23:33.100Z,39.30
2023-03-12T20:24:33.089Z,39.26
2023-03-12T20:25:33.162Z,39.24
2023-03-12T20:26:33.217Z,39.32
2023-03-12T20:27:33.278Z,39.29
2023-03-12T20:28:33.343Z,39.29
2023-03-12T20:29:33.414Z,39.31
2023-03-12T20:30:33.579Z,39.32
2023-03-12T20:31:34.228Z,39.32
2023-03-12T20:32:33.660Z,39.38
2023-03-12T20:33:34.174Z,39.30
2023-03-12T20:34:33.740Z,39.30
2023-03-12T20:35:33.818Z,39.36
2023-03-12T20:36:33.859Z,39.35
2023-03-12T20:37:33.905Z,39.35
2023-03-12T20:38:33.977Z,39.32
2023-03-12T20:39:34.055Z,39.30
2023-03-12T20:40:34.103Z,39.37
2023-03-12T20:41:34.170Z,39.36
2023-03-12T20:42:34.227Z,39.35
2023-03-12T20:43:34.298Z,39.34
2023-03-12T20:44:34.364Z,39.35
2023-03-12T20:45:34.441Z,39.32
2023-03-12T20:46:34.510Z,39.32
2023-03-12T20:47:34.665Z,39.34
2023-03-12T20:48:34.648Z,39.28
2023-03-12T20:49:34.735Z,39.37
2023-03-12T20:50:34.787Z,39.29
2023-03-12T20:51:34.847Z,39.37
2023-03-12T20:52:34.907Z,39.32
2023-03-12T20:53:34.968Z,39.28
2023-03-12T20:54:35.027Z,39.25
2023-03-12T20:55:35.086Z,39.27
2023-03-12T20:56:35.149Z,39.25
2023-03-12T20:57:35.214Z,39.26
2023-03-12T20:58:35.255Z,39.27
2023-03-12T20:59:35.331Z,39.32
2023-03-12T21:00:35.398Z,39.32
2023-03-12T21:01:35.466Z,39.29
2023-03-12T21:02:35.691Z,39.23
2023-03-12T21:03:35.592Z,39.26
2023-03-12T21:04:35.640Z,39.30
2023-03-12T21:05:35.717Z,39.27
2023-03-12T21:06:35.782Z,39.30
2023-03-12T21:07:35.863Z,39.22
2023-03-12T21:08:36.718Z,39.23
2023-03-12T21:09:35.982Z,39.21
2023-03-12T21:10:36.095Z,39.21
2023-03-12T21:11:36.106Z,39.21
2023-03-12T22:23:40.674Z,39.14
2023-03-12T22:24:40.738Z,39.15
2023-03-12T22:25:40.807Z,39.15
2023-03-12T22:26:40.875Z,39.12
2023-03-12T22:27:40.994Z,39.10
2023-03-12T22:28:41.065Z,39.17
2023-03-12T22:29:41.056Z,39.17
2023-03-12T22:30:41.115Z,39.11
2023-03-12T22:31:41.311Z,39.17
2023-03-12T22:32:41.272Z,39.16
2023-03-12T22:33:41.312Z,39.17
2023-03-12T22:34:41.368Z,39.16
2023-03-12T22:35:41.576Z,39.21
2023-03-12T22:36:41.506Z,39.20
2023-03-12T22:37:41.581Z,39.19
2023-03-12T22:39:41.694Z,39.20
2023-03-12T22:40:41.759Z,39.23
2023-03-12T22:41:41.814Z,39.14
2023-03-12T22:42:41.879Z,39.17
2023-03-12T22:43:41.946Z,39.17
2023-03-12T22:45:42.059Z,39.10
2023-03-12T22:46:42.271Z,39.12
2023-03-12T22:47:42.186Z,39.18
2023-03-12T22:48:42.320Z,39.19
2023-03-12T22:49:42.307Z,39.16
2023-03-12T22:50:42.372Z,39.14
